createdAt,value
2023-05-24T00:02:03.912Z,77.61
2023-05-24T00:05:01.127Z,77.69
2023-05-24T00:07:52.862Z,77.74
2023-05-24T00:10:45.693Z,77.52
2023-05-24T00:13:38.789Z,77.44
2023-05-24T00:16:31.788Z,77.25
2023-05-24T00:19:24.979Z,77.26
2023-05-24T00:22:17.536Z,77.21
2023-05-24T00:25:11.981Z,77.36
2023-05-24T00:28:04.851Z,77.31
2023-05-24T00:30:57.640Z,77.44
2023-05-24T00:33:50.249Z,77.62
2023-05-24T00:36:43.804Z,77.67
2023-05-24T00:39:27.519Z,77.73
2023-05-24T00:42:20.667Z,77.84
2023-05-24T00:45:13.795Z,78.01
2023-05-24T00:48:07.132Z,78.08
2023-05-24T00:51:00.272Z,78.26
2023-05-24T00:53:53.357Z,78.33
2023-05-24T00:56:46.422Z,78.55
2023-05-24T00:59:40.956Z,78.42
2023-05-24T01:02:26.927Z,78.67
2023-05-24T01:05:20.233Z,78.90
2023-05-24T01:08:24.248Z,79.22
2023-05-24T01:11:26.605Z,79.25
2023-05-24T01:14:25.240Z,79.27
2023-05-24T01:17:26.645Z,79.36
2023-05-24T01:20:13.604Z,79.51
2023-05-24T01:23:32.129Z,79.52
2023-05-24T01:26:39.743Z,79.56
2023-05-24T01:29:33.917Z,79.69
2023-05-24T01:32:20.848Z,79.99
2023-05-24T01:35:14.020Z,79.89
2023-05-24T01:37:59.552Z,79.99
2023-05-24T01:40:59.266Z,80.04
2023-05-24T01:44:03.085Z,79.98
2023-05-24T01:46:55.149Z,80.08
2023-05-24T01:49:55.324Z,79.91
2023-05-24T01:52:45.522Z,80.02
2023-05-24T01:55:38.961Z,80.16
2023-05-24T01:58:33.936Z,80.10
2023-05-24T02:01:27.874Z,80.40
2023-05-24T02:04:20.866Z,80.73
2023-05-24T02:07:03.614Z,80.99
2023-05-24T02:09:57.096Z,81.39
2023-05-24T02:12:50.135Z,81.66
2023-05-24T02:15:43.372Z,81.62
2023-05-24T02:18:36.569Z,81.69
2023-05-24T02:21:32.727Z,81.52
2023-05-24T02:24:06.993Z,81.47
2023-05-24T02:26:59.114Z,81.62
2023-05-24T02:29:45.361Z,81.57
2023-05-24T02:32:38.347Z,81.66
2023-05-24T02:35:33.454Z,81.72
2023-05-24T02:38:18.989Z,81.93
2023-05-24T02:41:17.886Z,82.08
2023-05-24T02:44:10.600Z,82.08
2023-05-24T02:47:03.455Z,82.10
2023-05-24T02:49:58.433Z,82.24
2023-05-24T02:52:51.793Z,82.31
2023-05-24T02:55:46.943Z,82.54
2023-05-24T02:58:40.590Z,82.69
2023-05-24T03:01:34.724Z,82.53
2023-05-24T03:04:27.426Z,82.68
2023-05-24T03:07:20.670Z,82.75
2023-05-24T03:10:15.971Z,82.72
2023-05-24T03:13:08.766Z,82.77
2023-05-24T03:16:00.003Z,82.68
2023-05-24T03:18:55.406Z,82.87
2023-05-24T03:21:48.391Z,83.18
2023-05-24T03:24:34.431Z,83.43
2023-05-24T03:27:26.998Z,83.52
2023-05-24T03:30:15.272Z,83.63
2023-05-24T03:33:08.128Z,83.83
2023-05-24T03:36:02.964Z,84.32
2023-05-24T03:38:48.614Z,84.43
2023-05-24T03:41:34.936Z,84.51
2023-05-24T03:44:29.758Z,84.81
2023-05-24T03:47:22.868Z,84.86
2023-05-24T03:50:15.666Z,84.74
2023-05-24T03:53:08.428Z,84.78
2023-05-24T03:56:01.201Z,84.96
2023-05-24T03:58:54.711Z,85.10
2023-05-24T04:01:47.832Z,85.23
2023-05-24T04:04:41.926Z,85.55
2023-05-24T04:07:26.112Z,85.75
2023-05-24T04:10:19.023Z,85.81
2023-05-24T04:13:11.775Z,86.02
2023-05-24T04:15:58.296Z,85.97
2023-05-24T04:18:51.605Z,86.10
2023-05-24T04:21:46.749Z,86.17
2023-05-24T04:24:39.511Z,85.92
2023-05-24T04:27:33.950Z,85.94
2023-05-24T04:30:29.785Z,85.72
2023-05-24T04:33:22.731Z,85.77
2023-05-24T04:36:16.282Z,85.78
2023-05-24T04:39:09.227Z,85.76
2023-05-24T04:42:02.179Z,85.66
2023-05-24T04:44:37.655Z,85.49
2023-05-24T04:47:31.661Z,85.44
2023-05-24T04:50:24.240Z,84.98
2023-05-24T04:53:16.973Z,84.72
2023-05-24T04:56:09.789Z,84.67
2023-05-24T04:58:52.968Z,84.73
2023-05-24T05:01:35.996Z,84.80
2023-05-24T05:04:30.216Z,84.73
2023-05-24T05:07:23.204Z,84.64
2023-05-24T05:10:18.772Z,84.65
2023-05-24T05:13:11.791Z,84.64
2023-05-24T05:16:05.574Z,84.56
2023-05-24T05:18:50.996Z,84.43
2023-05-24T05:21:46.154Z,84.33
2023-05-24T05:24:38.775Z,83.99
2023-05-24T05:27:24.266Z,84.14
2023-05-24T05:30:17.580Z,84.12
2023-05-24T05:33:06.346Z,83.62
2023-05-24T05:35:59.497Z,83.12
2023-05-24T05:38:43.123Z,82.71
2023-05-24T05:41:36.209Z,82.86
2023-05-24T05:44:29.064Z,82.18
2023-05-24T05:47:21.810Z,81.87
2023-05-24T05:49:57.977Z,80.80
2023-05-24T05:52:50.617Z,81.08
2023-05-24T05:55:43.551Z,80.36
2023-05-24T05:58:39.086Z,80.06
2023-05-24T06:01:31.960Z,79.49
2023-05-24T06:04:26.063Z,79.31
2023-05-24T06:07:11.328Z,78.07
2023-05-24T06:09:57.114Z,77.90
2023-05-24T06:12:49.888Z,77.52
2023-05-24T06:15:42.666Z,77.22
2023-05-24T06:18:36.816Z,76.79
2023-05-24T06:21:31.651Z,76.83
2023-05-24T06:24:24.854Z,76.61
2023-05-24T06:27:18.974Z,76.53
2023-05-24T06:30:13.612Z,76.81
2023-05-24T06:33:06.752Z,76.69
2023-05-24T06:35:59.842Z,76.35
2023-05-24T06:38:52.481Z,76.19
2023-05-24T06:41:39.154Z,75.75
2023-05-24T06:44:34.877Z,76.40
2023-05-24T06:47:19.179Z,76.29
2023-05-24T06:50:12.788Z,76.85
2023-05-24T06:52:55.804Z,76.49
2023-05-24T06:55:31.344Z,76.26
2023-05-24T06:58:24.336Z,75.74
2023-05-24T07:00:57.150Z,75.60
2023-05-24T07:03:32.600Z,75.55
2023-05-24T07:06:14.273Z,74.98
2023-05-24T07:08:48.950Z,74.66
2023-05-24T07:11:22.064Z,74.06
2023-05-24T07:14:03.938Z,72.94
2023-05-24T07:16:36.762Z,72.21
2023-05-24T07:19:21.533Z,72.29
2023-05-24T07:21:54.369Z,71.98
2023-05-24T07:24:30.895Z,71.38
2023-05-24T07:27:17.580Z,71.48
2023-05-24T07:29:55.014Z,71.02
2023-05-24T07:32:34.448Z,70.17
2023-05-24T07:35:20.348Z,69.65
2023-05-24T07:38:12.669Z,68.82
2023-05-24T07:40:57.354Z,69.31
2023-05-24T07:43:43.227Z,68.13
2023-05-24T07:46:15.640Z,67.30
2023-05-24T07:48:53.386Z,67.16
2023-05-24T07:51:28.646Z,66.82
2023-05-24T07:54:04.562Z,66.14
2023-05-24T07:56:41.894Z,65.84
2023-05-24T07:59:26.324Z,64.70
2023-05-24T08:02:05.638Z,63.95
2023-05-24T08:04:59.023Z,64.54
2023-05-24T08:07:51.863Z,65.51
2023-05-24T08:10:45.252Z,65.18
2023-05-24T08:13:38.659Z,65.64
2023-05-24T08:16:22.812Z,64.43
2023-05-24T08:19:09.252Z,64.86
2023-05-24T08:21:45.110Z,65.20
2023-05-24T08:24:21.487Z,65.02
2023-05-24T08:27:04.492Z,65.07
2023-05-24T08:29:48.969Z,64.89
2023-05-24T08:32:24.197Z,64.44
2023-05-24T08:35:14.795Z,64.19
2023-05-24T08:37:54.821Z,64.14
2023-05-24T08:40:40.671Z,64.45
2023-05-24T08:43:29.139Z,64.14
2023-05-24T08:46:23.486Z,63.86
2023-05-24T08:49:01.717Z,63.80
2023-05-24T08:51:55.960Z,64.05
2023-05-24T08:54:52.235Z,64.60
2023-05-24T08:57:32.745Z,63.63
2023-05-24T09:00:26.486Z,63.63
2023-05-24T09:03:20.623Z,62.85
2023-05-24T09:06:17.828Z,62.43
2023-05-24T09:09:11.448Z,60.80
2023-05-24T09:11:53.466Z,61.22
2023-05-24T09:14:31.025Z,60.25
2023-05-24T09:17:07.010Z,60.27
2023-05-24T09:19:41.228Z,60.21
2023-05-24T09:22:20.359Z,59.95
2023-05-24T09:24:53.876Z,58.76
2023-05-24T09:27:39.310Z,57.96
2023-05-24T09:30:26.615Z,58.01
2023-05-24T09:33:20.981Z,57.72
2023-05-24T09:36:00.777Z,57.45
2023-05-24T09:38:36.905Z,56.75
2023-05-24T09:41:12.852Z,55.90
2023-05-24T09:43:54.245Z,55.96
2023-05-24T09:46:29.369Z,55.33
2023-05-24T09:49:23.915Z,55.66
2023-05-24T09:51:59.801Z,56.27
2023-05-24T09:54:52.650Z,55.06
2023-05-24T09:57:28.933Z,55.74
2023-05-24T10:00:17.708Z,56.17
2023-05-24T10:03:12.971Z,56.76
2023-05-24T10:06:07.763Z,56.92
2023-05-24T10:08:57.186Z,58.30
2023-05-24T10:11:50.206Z,57.96
2023-05-24T10:14:23.529Z,57.27
2023-05-24T10:17:08.231Z,56.39
2023-05-24T10:19:42.068Z,55.44
2023-05-24T10:22:28.032Z,55.49
2023-05-24T10:25:06.670Z,55.70
2023-05-24T10:27:40.443Z,54.33
2023-05-24T10:30:19.380Z,54.09
2023-05-24T10:32:56.402Z,54.11
2023-05-24T10:35:31.022Z,54.35
2023-05-24T10:38:08.905Z,53.64
2023-05-24T10:40:45.952Z,54.37
2023-05-24T10:43:28.974Z,54.37
2023-05-24T10:46:03.871Z,53.96
2023-05-24T10:49:06.673Z,54.10
2023-05-24T10:52:01.701Z,54.06
2023-05-24T10:55:05.640Z,53.80
2023-05-24T10:57:42.698Z,54.16
2023-05-24T11:00:42.389Z,53.76
2023-05-24T11:03:23.916Z,53.34
2023-05-24T11:06:01.427Z,53.10
2023-05-24T11:08:43.684Z,54.36
2023-05-24T11:14:13.959Z,54.64
2023-05-24T11:19:32.124Z,54.80
2023-05-24T11:22:06.207Z,55.12
2023-05-24T11:24:43.812Z,55.24
2023-05-24T11:27:35.652Z,56.39
2023-05-24T11:30:14.210Z,56.29
2023-05-24T11:33:07.289Z,55.68
2023-05-24T11:35:50.739Z,55.79
2023-05-24T11:38:44.941Z,56.42
2023-05-24T11:41:28.691Z,56.27
2023-05-24T11:44:21.915Z,56.55
2023-05-24T11:47:16.165Z,56.42
2023-05-24T11:49:52.953Z,56.89
2023-05-24T11:52:43.357Z,55.96
2023-05-24T11:55:30.433Z,55.45
2023-05-24T11:58:07.578Z,56.54
2023-05-24T12:00:41.132Z,56.28
2023-05-24T12:03:25.300Z,56.02
2023-05-24T12:06:00.025Z,55.76
2023-05-24T12:08:34.008Z,56.07
2023-05-24T12:11:09.957Z,57.23
2023-05-24T12:13:45.690Z,57.19
2023-05-24T12:16:22.189Z,58.08
2023-05-24T12:19:32.479Z,56.63
2023-05-24T12:22:32.035Z,56.35
2023-05-24T12:25:27.464Z,55.42
2023-05-24T12:28:24.795Z,56.21
2023-05-24T12:31:01.239Z,55.79
2023-05-24T12:33:54.314Z,55.19
2023-05-24T12:36:36.935Z,54.93
2023-05-24T12:39:23.222Z,54.76
2023-05-24T12:42:09.961Z,55.00
2023-05-24T12:44:52.534Z,54.75
2023-05-24T12:47:40.996Z,55.02
2023-05-24T12:50:26.804Z,54.87
2023-05-24T12:53:13.128Z,54.91
2023-05-24T12:56:00.719Z,54.58
2023-05-24T12:58:37.505Z,55.87
2023-05-24T13:01:13.354Z,54.61
2023-05-24T13:03:46.364Z,55.03
2023-05-24T13:06:19.096Z,56.28
2023-05-24T13:08:53.692Z,55.75
2023-05-24T13:11:31.353Z,55.05
2023-05-24T13:14:11.582Z,55.23
2023-05-24T13:16:58.705Z,55.38
2023-05-24T13:19:40.305Z,54.53
2023-05-24T13:22:12.980Z,54.16
2023-05-24T13:25:08.332Z,54.30
2023-05-24T13:28:00.144Z,53.88
2023-05-24T13:30:53.073Z,52.89
2023-05-24T13:33:26.502Z,52.83
2023-05-24T13:36:10.109Z,53.33
2023-05-24T13:39:14.321Z,53.32
2023-05-24T13:42:09.158Z,52.78
2023-05-24T13:45:01.701Z,52.96
2023-05-24T13:47:48.564Z,54.06
2023-05-24T13:50:40.475Z,53.58
2023-05-24T13:53:33.359Z,52.81
2023-05-24T13:56:26.097Z,52.22
2023-05-24T13:59:19.770Z,52.80
2023-05-24T14:02:12.323Z,52.63
2023-05-24T14:05:13.596Z,52.39
2023-05-24T14:08:11.616Z,52.59
2023-05-24T14:11:04.936Z,52.08
2023-05-24T14:16:55.234Z,51.35
2023-05-24T14:19:35.674Z,51.39
2023-05-24T14:22:29.781Z,51.29
2023-05-24T14:25:22.648Z,50.83
2023-05-24T14:28:08.788Z,51.63
2023-05-24T14:30:52.577Z,51.16
2023-05-24T14:33:48.053Z,51.18
2023-05-24T14:36:41.723Z,51.25
2023-05-24T14:39:34.775Z,51.39
2023-05-24T14:42:11.050Z,51.94
2023-05-24T14:44:43.598Z,51.75
2023-05-24T14:47:38.032Z,50.83
2023-05-24T14:50:22.851Z,51.21
2023-05-24T14:53:15.881Z,52.35
2023-05-24T14:55:59.113Z,51.68
2023-05-24T14:58:34.669Z,51.22
2023-05-24T15:01:28.046Z,51.31
2023-05-24T15:04:11.532Z,51.73
2023-05-24T15:07:04.698Z,51.84
2023-05-24T15:09:57.690Z,52.29
2023-05-24T15:12:30.999Z,52.30
2023-05-24T15:15:16.566Z,52.14
2023-05-24T15:17:55.230Z,52.08
2023-05-24T15:20:44.162Z,52.24
2023-05-24T15:23:21.295Z,52.25
2023-05-24T15:26:08.435Z,51.99
2023-05-24T15:28:58.325Z,52.32
2023-05-24T15:31:37.011Z,52.61
2023-05-24T15:34:21.520Z,53.15
2023-05-24T15:36:56.575Z,53.79
2023-05-24T15:39:29.278Z,54.08
2023-05-24T15:42:05.107Z,55.05
2023-05-24T15:44:39.796Z,55.34
2023-05-24T15:47:16.075Z,55.82
2023-05-24T15:49:58.089Z,56.30
2023-05-24T15:52:31.139Z,56.24
2023-05-24T15:55:05.336Z,56.69
2023-05-24T15:57:38.495Z,56.67
2023-05-24T16:00:18.315Z,56.79
2023-05-24T16:02:56.011Z,57.32
2023-05-24T16:05:38.205Z,57.07
2023-05-24T16:08:16.196Z,56.83
2023-05-24T16:10:49.334Z,56.27
2023-05-24T16:13:29.838Z,56.34
2023-05-24T16:16:13.812Z,56.49
2023-05-24T16:18:51.843Z,56.15
2023-05-24T16:21:24.577Z,56.00
2023-05-24T16:23:58.742Z,55.06
2023-05-24T16:26:32.797Z,55.33
2023-05-24T16:29:07.161Z,55.11
2023-05-24T16:31:40.633Z,54.74
2023-05-24T16:34:17.436Z,55.17
2023-05-24T16:36:50.349Z,55.44
2023-05-24T16:39:43.034Z,55.91
2023-05-24T16:42:17.699Z,56.12
2023-05-24T16:45:12.114Z,56.10
2023-05-24T16:48:05.288Z,55.60
2023-05-24T16:50:58.691Z,55.37
2023-05-24T16:53:51.792Z,56.23
2023-05-24T16:56:27.680Z,56.79
2023-05-24T16:59:20.713Z,57.32
2023-05-24T17:02:13.813Z,58.17
2023-05-24T17:05:08.195Z,58.48
2023-05-24T17:08:01.479Z,58.54
2023-05-24T17:10:57.219Z,59.34
2023-05-24T17:13:51.594Z,59.96
2023-05-24T17:16:37.936Z,60.73
2023-05-24T17:19:31.917Z,62.03
2023-05-24T17:22:25.170Z,63.21
2023-05-24T17:25:05.481Z,63.89
2023-05-24T17:27:58.076Z,64.93
2023-05-24T17:30:51.234Z,65.72
2023-05-24T17:33:45.171Z,66.51
2023-05-24T17:36:38.719Z,67.28
2023-05-24T17:39:24.553Z,67.70
2023-05-24T17:42:18.384Z,67.90
2023-05-24T17:45:06.688Z,68.57
2023-05-24T17:47:59.908Z,68.97
2023-05-24T17:50:45.912Z,69.22
2023-05-24T17:53:34.830Z,69.42
2023-05-24T17:56:29.434Z,69.77
2023-05-24T17:59:07.392Z,70.40
2023-05-24T18:02:01.220Z,70.94
2023-05-24T18:04:55.458Z,71.38
2023-05-24T18:07:48.452Z,72.10
2023-05-24T18:10:29.085Z,72.87
2023-05-24T18:13:22.435Z,73.42
2023-05-24T18:16:16.093Z,73.77
2023-05-24T18:18:54.506Z,73.81
2023-05-24T18:21:49.097Z,74.36
2023-05-24T18:24:42.019Z,74.53
2023-05-24T18:27:35.509Z,75.27
2023-05-24T18:30:28.458Z,75.78
2023-05-24T18:33:12.983Z,76.24
2023-05-24T18:35:57.836Z,76.69
2023-05-24T18:38:51.178Z,76.92
2023-05-24T18:41:36.837Z,76.80
2023-05-24T18:44:30.893Z,77.22
2023-05-24T18:47:14.054Z,77.63
2023-05-24T18:50:08.754Z,77.98
2023-05-24T18:52:53.930Z,78.38
2023-05-24T18:55:51.096Z,79.00
2023-05-24T18:58:46.358Z,79.21
2023-05-24T19:01:25.669Z,79.28
2023-05-24T19:04:21.931Z,79.81
2023-05-24T19:07:15.457Z,80.20
2023-05-24T19:10:05.622Z,80.39
2023-05-24T19:12:41.456Z,80.45
2023-05-24T19:15:35.846Z,80.92
2023-05-24T19:18:20.761Z,81.10
2023-05-24T19:20:57.424Z,81.45
2023-05-24T19:23:42.379Z,81.71
2023-05-24T19:26:27.345Z,81.96
2023-05-24T19:29:08.191Z,82.66
2023-05-24T19:31:43.609Z,82.56
2023-05-24T19:34:19.398Z,82.94
2023-05-24T19:36:59.643Z,82.78
2023-05-24T19:39:35.777Z,82.88
2023-05-24T19:42:13.068Z,82.86
2023-05-24T19:44:57.107Z,82.48
2023-05-24T19:47:32.267Z,82.81
2023-05-24T19:50:17.566Z,82.91
2023-05-24T19:53:10.411Z,83.83
2023-05-24T19:56:05.012Z,83.91
2023-05-24T19:58:58.046Z,84.12
2023-05-24T20:01:50.399Z,84.20
2023-05-24T20:04:44.133Z,84.79
2023-05-24T20:07:35.888Z,84.93
2023-05-24T20:10:33.008Z,84.77
2023-05-24T20:13:25.753Z,84.66
2023-05-24T20:16:20.666Z,85.05
2023-05-24T20:19:13.714Z,85.13
2023-05-24T20:22:02.471Z,84.84
2023-05-24T20:24:47.646Z,85.10
2023-05-24T20:27:34.380Z,85.08
2023-05-24T20:30:26.546Z,85.28
2023-05-24T20:33:11.884Z,85.65
2023-05-24T20:35:55.713Z,85.61
2023-05-24T20:38:49.220Z,85.69
2023-05-24T20:41:38.376Z,86.00
2023-05-24T20:44:32.693Z,86.21
2023-05-24T20:47:24.561Z,86.49
2023-05-24T20:50:18.425Z,86.30
2023-05-24T20:53:12.228Z,86.44
2023-05-24T20:56:05.770Z,86.40
2023-05-24T20:59:00.234Z,86.43
2023-05-24T21:01:54.085Z,86.45
2023-05-24T21:04:46.906Z,86.70
2023-05-24T21:07:38.618Z,86.95
2023-05-24T21:10:32.572Z,87.32
2023-05-24T21:13:25.702Z,87.31
2023-05-24T21:16:18.363Z,87.66
2023-05-24T21:19:11.298Z,87.34
2023-05-24T21:22:04.225Z,87.60
2023-05-24T21:24:58.224Z,87.80
2023-05-24T21:27:39.813Z,88.06
2023-05-24T21:30:32.726Z,88.37
2023-05-24T21:33:21.773Z,88.51
2023-05-24T21:36:14.248Z,88.69
2023-05-24T21:38:57.823Z,88.51
2023-05-24T21:41:43.132Z,88.43
2023-05-24T21:44:35.857Z,88.81
2023-05-24T21:47:28.616Z,89.05
2023-05-24T21:50:22.257Z,88.92
2023-05-24T21:53:14.928Z,88.93
2023-05-24T21:56:09.693Z,89.03
2023-05-24T21:59:02.677Z,89.59
2023-05-24T22:01:55.321Z,89.34
2023-05-24T22:04:46.570Z,89.82
2023-05-24T22:07:29.349Z,89.74
2023-05-24T22:10:22.256Z,90.20
2023-05-24T22:13:16.550Z,90.29
2023-05-24T22:16:10.214Z,90.19
2023-05-24T22:19:01.051Z,89.89
2023-05-24T22:21:53.462Z,90.46
2023-05-24T22:24:48.309Z,90.27
2023-05-24T22:27:40.894Z,90.43
2023-05-24T22:30:18.603Z,90.47
2023-05-24T22:33:14.065Z,90.86
2023-05-24T22:36:07.197Z,90.90
2023-05-24T22:39:00.152Z,90.66
2023-05-24T22:41:52.423Z,90.82
2023-05-24T22:44:46.453Z,90.79
2023-05-24T22:47:33.455Z,90.87
2023-05-24T22:50:26.106Z,91.07
2023-05-24T22:53:18.908Z,90.90
2023-05-24T22:56:11.636Z,91.16
2023-05-24T22:59:04.696Z,91.14
2023-05-24T23:01:57.679Z,91.51
2023-05-24T23:04:50.610Z,91.68
2023-05-24T23:07:43.620Z,91.60
2023-05-24T23:10:28.630Z,91.73
2023-05-24T23:13:22.200Z,92.17
2023-05-24T23:16:18.071Z,92.60
2023-05-24T23:19:05.568Z,92.58
2023-05-24T23:21:58.662Z,92.99
2023-05-24T23:24:51.387Z,93.12
2023-05-24T23:27:34.913Z,93.23
2023-05-24T23:30:19.437Z,93.07
2023-05-24T23:33:12.616Z,93.45
2023-05-24T23:36:06.810Z,93.70
2023-05-24T23:38:58.934Z,93.74
2023-05-24T23:41:51.723Z,93.81
2023-05-24T23:44:37.301Z,93.80
2023-05-24T23:47:30.253Z,93.67
2023-05-24T23:50:22.794Z,94.13
2023-05-24T23:52:58.396Z,94.19
2023-05-24T23:55:51.079Z,94.66
2023-05-24T23:58:44.073Z,94.89
